Date,TemperatureHighF,TemperatureAvgF,TemperatureLowF,DewpointHighF,DewpointAvgF,DewpointLowF,HumidityHigh,HumidityAvg,HumidityLow,PressureMaxIn,PressureMinIn,WindSpeedMaxMPH,WindSpeedAvgMPH,GustSpeedMaxMPH,PrecipitationSumIn
2013-1-1,34.2,22.8,8.7,30.0,17.0,6.0,94,78,64,30.05,29.79,24,6,24,0.00
2013-1-2,25.2,15.1,0.0,21.4,9.6,-6.3,92,79,62,30.29,29.97,18,4,18,0.00
2013-1-3,29.2,10.2,-1.3,25.8,5.0,-10.2,91,80,62,30.21,29.93,18,2,18,0.00
2013-1-4,34.4,31.3,28.2,30.9,27.9,24.8,87,87,87,29.99,29.88,24,13,24,0.00
2013-1-5,35.6,31.5,26.9,29.0,23.2,17.9,87,72,50,30.29,29.97,26,9,26,0.00
2013-1-6,38.3,33.5,28.1,31.7,27.3,20.6,88,78,64,30.15,29.92,18,4,18,0.00
2013-1-7,35.8,25.8,14.4,31.5,20.4,10.7,91,80,69,30.42,30.01,18,6,18,0.02
2013-1-8,41.5,22.7,9.7,25.0,15.6,5.3,86,76,46,30.40,30.24,8,1,8,0.00
2013-1-9,45.7,31.3,12.8,32.4,22.4,9.0,87,71,55,30.36,29.98,35,8,35,0.00
2013-1-10,41.8,33.6,21.8,28.4,23.9,18.8,89,68,49,30.59,30.22,41,9,41,0.00
2013-1-11,35.5,31.1,21.6,33.7,26.5,18.9,93,83,68,30.54,30.06,20,6,20,0.19
2013-1-12,46.5,39.1,35.0,41.3,36.4,33.2,96,90,77,30.12,30.06,14,5,14,0.00
2013-1-13,54.4,43.6,34.4,49.5,41.3,33.1,96,92,82,30.08,29.87,14,6,14,0.00
2013-1-14,45.2,38.0,31.2,43.6,31.2,20.2,94,77,59,30.38,29.81,29,11,29,0.02
2013-1-15,34.0,30.8,29.0,25.3,23.2,20.5,81,73,65,30.39,30.24,12,3,12,0.00
2013-1-16,31.6,29.0,24.1,27.9,24.9,21.3,92,84,71,30.24,29.82,13,4,13,0.01
2013-1-17,35.3,27.9,19.4,28.0,16.2,4.0,82,62,47,30.21,29.86,28,10,28,0.00
2013-1-18,26.1,18.5,10.2,11.8,5.8,-5.0,77,58,42,30.45,30.15,16,5,16,0.00
2013-1-19,46.7,37.9,26.1,27.4,19.1,9.4,68,47,38,30.20,29.68,24,7,24,0.00
2013-1-20,46.5,32.5,18.0,34.8,20.4,9.8,90,63,41,30.06,29.45,40,17,40,0.32
2013-1-21,21.6,17.7,10.4,17.3,12.7,6.3,86,81,70,30.07,29.85,12,2,12,0.12
2013-1-22,16.2,11.3,4.8,11.2,2.8,-3.9,82,70,44,30.19,29.85,25,12,25,0.25
2013-1-23,9.2,-1.9,-15.8,-1.4,-11.1,-23.3,75,65,48,30.29,30.17,13,2,13,0.01
2013-1-24,11.7,-0.3,-18.4,6.7,-8.9,-26.0,80,67,49,30.47,30.20,22,6,22,0.00
2013-1-25,16.1,8.7,-0.4,6.3,-0.8,-8.7,80,65,45,30.48,30.12,18,3,18,0.02
2013-1-26,17.1,5.7,-7.2,9.4,-0.2,-13.6,90,77,58,30.42,30.11,15,2,15,0.00
2013-1-27,23.6,9.7,-9.1,8.3,-0.8,-15.7,79,63,38,30.61,30.41,14,2,14,0.00
2013-1-28,31.0,22.6,17.7,29.5,16.1,6.2,94,77,56,30.49,29.94,17,6,17,0.19
2013-1-29,39.2,34.3,30.9,37.9,32.8,29.1,98,94,92,30.11,29.91,18,4,18,0.23
2013-1-30,58.0,48.9,38.5,53.6,46.1,36.8,95,90,78,29.91,29.17,28,11,28,0.28
2013-1-31,53.9,35.0,24.2,51.3,26.1,9.4,94,70,50,29.66,28.95,41,18,41,0.41
2013-2-1,24.4,20.2,15.4,16.4,12.4,8.3,86,72,57,30.21,29.66,26,13,26,0.10
2013-2-2,20.5,14.7,5.2,11.1,7.5,0.0,85,73,55,30.22,30.04,16,3,16,0.00
2013-2-3,26.7,15.2,0.0,16.7,7.6,-5.2,85,72,54,30.04,29.81,16,2,16,0.01
2013-2-4,23.0,18.4,11.2,17.2,13.2,6.8,86,80,58,29.98,29.82,21,6,21,0.10
2013-2-5,26.7,16.8,4.1,15.1,9.8,1.3,91,75,53,30.04,29.90,9,1,9,0.00
2013-2-6,28.8,20.1,3.5,24.1,11.3,-1.8,87,70,39,30.42,29.91,30,8,30,0.02
2013-2-7,25.7,15.3,-0.2,8.6,3.1,-5.4,81,60,42,30.55,30.27,21,7,21,0.00
2013-2-8,29.1,25.1,20.6,25.9,17.9,6.0,91,74,53,30.27,29.85,31,13,31,0.32
2013-2-9,24.7,15.9,-3.1,20.8,8.0,-8.8,89,72,52,30.45,29.93,24,8,24,0.07
2013-2-10,32.4,16.8,-4.3,13.8,5.2,-10.5,83,62,40,30.53,30.16,20,6,20,0.00
2013-2-11,44.8,33.1,24.1,38.3,25.3,5.3,92,74,44,30.16,29.62,25,8,25,0.16
2013-2-12,36.5,33.1,30.7,29.8,27.0,23.4,91,78,64,29.97,29.70,27,13,27,0.06
2013-2-13,40.5,31.2,21.0,24.2,20.8,16.4,84,67,41,29.92,29.75,15,3,15,0.00
2013-2-14,37.8,29.4,15.6,31.7,21.8,11.9,91,74,56,29.97,29.78,9,2,9,0.03
2013-2-15,41.5,36.3,28.8,32.4,26.7,22.2,91,69,49,30.03,29.82,20,7,20,0.06
2013-2-16,31.8,25.8,18.0,22.5,11.6,3.7,81,56,34,30.05,29.92,17,6,17,0.00
2013-2-17,21.3,14.9,9.7,7.9,3.3,-0.8,81,61,39,30.08,29.88,30,12,30,0.00
2013-2-18,27.0,15.8,4.3,8.4,4.1,-1.9,76,61,40,30.31,30.08,21,8,21,0.00
2013-2-19,34.4,27.5,19.7,31.6,18.8,6.5,92,71,53,30.10,29.65,25,7,25,0.20
2013-2-20,28.7,24.4,19.7,22.7,15.8,10.1,86,70,48,29.97,29.74,31,16,31,0.02
2013-2-21,19.7,16.3,12.1,16.3,10.8,5.7,87,78,70,30.46,29.94,26,12,26,0.06
2013-2-22,33.5,25.3,16.1,23.8,17.7,12.1,86,73,60,30.47,30.16,20,6,20,0.00
2013-2-23,35.3,33.8,32.2,33.2,28.7,22.0,93,82,63,30.16,29.86,13,4,13,0.06
2013-2-24,35.3,31.8,29.1,32.6,27.4,23.5,93,84,64,30.02,29.84,17,6,17,0.04
2013-2-25,40.9,32.5,21.1,31.5,27.3,18.4,90,82,63,30.28,30.02,22,5,22,0.00
2013-2-26,41.6,31.2,15.9,28.2,22.6,12.5,89,72,54,30.30,29.95,30,10,30,0.03
2013-2-27,39.1,35.3,31.9,35.6,32.2,28.2,94,89,76,29.97,29.56,38,11,38,0.87
2013-2-28,39.5,35.8,33.2,35.1,32.4,30.4,94,88,77,29.67,29.55,9,2,9,0.02
2013-3-1,37.2,32.7,29.0,31.4,28.0,21.9,94,83,73,29.88,29.67,21,8,21,0.00
2013-3-2,28.8,25.2,21.9,22.5,18.8,15.8,81,76,69,29.90,29.85,20,9,20,0.00
2013-3-3,27.3,22.8,19.1,18.6,16.3,14.2,83,76,66,29.87,29.82,20,8,20,0.01
2013-3-4,28.2,25.7,23.3,23.1,20.7,18.3,87,81,72,29.99,29.84,31,12,31,0.03
2013-3-5,38.3,29.0,21.1,24.1,21.1,17.8,88,73,54,30.11,29.99,17,4,17,0.00
2013-3-6,42.8,33.2,18.9,29.0,23.6,15.7,89,70,53,30.15,30.03,20,4,20,0.00
2013-3-7,38.5,34.4,28.4,26.4,23.0,19.6,88,64,51,30.24,30.13,18,5,18,0.04
2013-3-8,44.3,32.6,27.0,26.6,24.2,21.2,91,73,43,30.38,30.20,20,9,20,0.15
2013-3-9,48.9,32.0,19.4,29.2,22.8,16.2,91,72,39,30.42,30.32,13,3,13,0.00
2013-3-10,57.2,41.2,23.9,28.7,23.9,19.9,90,55,24,30.32,30.11,20,7,20,0.00
2013-3-11,51.3,45.2,39.8,40.4,32.0,26.2,68,60,49,30.16,29.83,29,9,29,0.00
2013-3-12,52.3,41.0,33.1,46.7,37.5,30.6,93,88,68,29.92,29.76,20,7,20,0.37
2013-3-13,41.8,33.8,27.0,30.9,27.2,19.5,91,78,51,29.92,29.81,21,6,21,0.07
2013-3-14,27.3,23.6,17.8,20.6,14.0,7.2,84,67,47,30.00,29.88,40,17,40,0.02
2013-3-15,35.0,26.3,11.4,31.8,19.6,7.0,90,76,54,30.02,29.68,22,7,22,0.07
2013-3-16,32.7,25.0,16.1,20.2,13.0,9.9,79,60,42,29.99,29.83,15,5,15,0.00
2013-3-17,33.7,23.8,15.1,17.0,9.9,2.8,81,57,36,30.37,29.98,26,7,26,0.00
2013-3-18,33.1,22.9,11.4,24.9,10.9,5.3,93,64,31,30.43,29.94,28,10,28,0.06
2013-3-19,34.4,28.6,23.2,32.3,26.3,19.2,94,91,81,29.94,29.70,26,11,26,0.34
2013-3-20,35.6,27.4,22.1,24.9,19.6,15.2,83,73,47,29.84,29.78,22,8,22,0.00
2013-3-21,35.9,23.5,4.8,16.0,10.8,0.2,84,61,34,29.82,29.72,21,6,21,0.00
2013-3-22,33.4,28.0,19.4,27.0,22.4,13.2,91,80,56,29.86,29.69,30,9,30,0.14
2013-3-23,38.5,32.2,28.4,27.0,24.2,20.7,91,73,54,29.96,29.83,31,12,31,0.06
2013-3-24,43.8,34.7,26.3,24.4,22.1,18.4,80,61,39,29.95,29.78,15,5,15,0.00
2013-3-25,44.2,35.7,26.3,26.9,23.1,20.8,80,61,43,29.78,29.57,14,4,14,0.00
2013-3-26,47.6,37.6,29.3,30.3,25.3,16.8,82,63,30,29.92,29.66,18,6,20,0.00
2013-3-27,47.7,37.2,27.2,33.0,27.9,23.0,86,70,48,30.02,29.88,23,9,23,0.00
2013-3-28,46.7,39.0,33.5,35.9,31.6,28.6,90,76,54,30.17,30.00,20,8,20,0.00
2013-3-29,45.2,39.0,32.8,33.9,30.8,28.2,83,73,59,30.18,30.12,17,6,17,0.00
2013-3-30,53.2,38.3,25.1,32.3,25.8,19.6,92,65,29,30.20,30.11,19,5,19,0.00
2013-3-31,54.7,40.4,24.8,41.4,30.0,21.5,90,69,34,30.11,29.68,33,8,33,0.09
2013-4-1,42.1,36.6,26.6,40.5,28.6,14.4,95,75,40,29.92,29.58,37,13,37,0.20
2013-4-2,33.5,27.2,23.5,24.8,22.1,18.8,90,81,55,30.06,29.90,35,14,35,0.35
2013-4-3,36.3,30.2,23.2,22.1,17.3,12.7,83,60,39,30.33,30.05,33,14,33,0.00
2013-4-4,54.4,37.7,25.0,27.2,21.2,16.1,79,54,26,30.37,29.94,14,5,14,0.00
2013-4-5,46.0,37.6,27.2,31.6,24.4,15.2,84,60,36,30.07,29.88,29,10,29,0.00
2013-4-6,44.2,34.4,24.1,25.7,11.8,5.0,78,41,23,30.35,30.07,20,7,20,0.00
2013-4-7,65.2,48.7,34.3,42.1,28.2,11.0,79,47,31,30.19,29.78,26,11,26,0.04
2013-4-8,57.3,48.3,39.6,39.6,34.9,32.1,79,61,44,30.16,29.85,20,6,20,0.01
2013-4-9,59.3,50.5,44.6,48.3,42.6,38.0,91,75,59,30.10,29.77,30,8,30,0.23
2013-4-10,53.2,47.9,44.2,48.8,45.3,41.6,96,91,78,30.03,29.85,17,4,17,0.82
2013-4-11,44.2,38.2,33.1,42.0,33.3,27.6,92,83,68,30.14,29.93,17,7,17,0.12
2013-4-12,37.8,35.5,32.2,36.6,33.1,28.8,96,91,85,30.08,29.70,34,12,35,0.92
2013-4-13,51.0,41.2,36.9,39.5,36.7,35.3,95,85,58,29.96,29.80,20,4,20,0.08
2013-4-14,47.3,38.7,29.0,35.4,29.7,24.1,91,72,43,30.25,29.94,22,8,22,0.01
2013-4-15,62.7,46.0,28.1,41.6,32.7,25.5,91,62,41,30.31,30.15,21,9,21,0.02
2013-4-16,61.2,54.9,45.1,55.0,46.6,39.4,92,75,56,30.20,29.97,24,13,24,0.29
2013-4-17,60.7,46.8,31.6,41.1,34.4,28.2,93,65,31,30.33,30.20,21,5,21,0.01
2013-4-18,67.8,54.3,36.5,51.1,40.3,29.7,90,60,45,30.31,29.91,31,15,31,0.00
2013-4-19,73.2,61.1,41.5,58.7,52.0,38.8,93,73,53,29.91,29.45,37,16,37,0.62
2013-4-20,46.5,40.3,31.5,40.0,29.6,18.8,93,66,43,30.39,29.74,32,13,32,0.00
2013-4-21,49.1,36.8,26.3,26.2,21.5,17.8,85,56,30,30.67,30.39,17,6,17,0.00
2013-4-22,56.7,43.2,26.1,29.2,23.5,18.8,91,50,24,30.66,30.44,22,9,22,0.00
2013-4-23,57.5,46.4,35.3,40.0,32.5,25.6,76,59,40,30.45,30.09,23,12,23,0.00
2013-4-24,71.6,53.9,40.5,56.0,44.0,36.3,91,71,44,30.09,29.66,33,10,33,0.35
2013-4-25,55.4,44.6,37.5,40.2,30.9,20.4,90,62,26,30.28,29.91,32,10,32,0.00
2013-4-26,55.3,44.0,32.4,40.8,33.6,27.0,92,69,38,30.48,30.27,19,5,19,0.03
2013-4-27,64.3,46.5,28.2,41.0,32.7,25.9,93,64,29,30.48,30.28,12,3,12,0.00
2013-4-28,73.3,57.0,35.6,44.4,37.4,31.3,94,54,23,30.28,30.06,16,5,16,0.00
2013-4-29,59.5,52.6,48.9,50.7,47.0,37.9,93,82,45,30.16,30.10,17,8,17,0.53
2013-4-30,69.3,58.1,48.6,53.8,48.8,46.1,92,73,48,30.27,30.15,20,5,20,0.10
2013-5-1,75.4,60.2,41.9,46.7,39.7,32.6,94,54,25,30.42,30.27,17,5,17,0.00
2013-5-2,79.8,62.9,43.8,50.6,40.3,32.6,80,48,21,30.45,30.26,12,3,12,0.00
2013-5-3,71.5,62.3,52.2,45.2,37.8,29.6,75,41,27,30.39,30.26,22,12,23,0.00
2013-5-4,75.6,58.2,39.2,45.6,39.2,32.4,87,54,27,30.32,30.17,15,4,15,0.00
2013-5-5,76.3,60.4,42.9,48.4,40.6,29.0,92,54,19,30.24,30.10,14,5,14,0.00
2013-5-6,76.3,59.1,38.8,45.6,37.9,26.9,89,51,17,30.22,30.04,13,3,13,0.00
2013-5-7,79.4,63.6,46.1,58.0,47.1,37.6,93,60,23,30.14,30.01,13,3,13,0.00
2013-5-8,68.8,60.4,48.6,60.8,54.8,46.1,92,82,64,30.10,29.95,19,5,19,0.08
2013-5-9,71.5,61.2,51.4,58.3,53.6,48.9,95,78,48,29.96,29.88,18,4,18,0.01
2013-5-10,74.2,62.6,49.4,59.7,54.3,47.7,96,77,49,29.99,29.80,12,3,12,0.23
2013-5-11,64.3,56.8,49.8,60.0,53.0,46.1,93,87,77,29.80,29.66,24,7,24,0.17
2013-5-12,55.4,47.3,36.5,46.9,37.2,25.7,95,71,33,29.90,29.69,30,10,30,0.05
2013-5-13,51.4,41.3,32.7,34.6,29.8,24.9,90,66,38,30.12,29.90,26,11,26,0.03
2013-5-14,56.7,43.7,29.3,35.4,29.8,20.4,92,63,27,30.16,30.04,16,4,16,0.00
2013-5-15,67.1,50.4,31.2,55.9,40.8,28.6,91,71,52,30.04,29.56,27,7,27,0.04
2013-5-16,74.9,59.7,39.5,49.8,40.3,32.8,94,55,24,29.95,29.71,32,10,32,0.00
2013-5-17,67.3,54.8,38.5,47.2,41.4,35.4,92,63,40,30.25,29.95,17,5,17,0.00
2013-5-18,72.1,56.1,36.5,49.6,42.6,34.9,96,66,31,30.31,30.19,12,3,12,0.00
2013-5-19,63.7,57.4,50.4,57.2,51.9,46.3,91,82,73,30.24,30.11,14,6,14,0.05
2013-5-20,83.2,69.1,58.1,66.8,60.0,54.1,92,75,47,30.12,29.91,12,2,12,0.00
2013-5-21,86.1,72.4,61.0,71.3,64.7,59.0,96,79,53,29.93,29.76,20,3,20,1.00
2013-5-22,84.0,71.2,60.9,71.1,65.0,59.8,96,82,53,29.84,29.72,28,3,28,0.06
2013-5-23,77.4,67.6,61.3,65.1,61.4,58.1,95,82,60,29.80,29.71,20,5,20,0.37
2013-5-24,61.6,45.9,42.1,60.4,43.8,39.6,96,92,86,30.12,29.72,21,10,21,0.70
2013-5-25,50.8,45.5,41.9,42.6,40.0,35.7,93,82,58,30.13,30.06,25,10,25,0.14
2013-5-26,60.1,49.6,39.9,40.8,38.3,33.3,88,67,37,30.17,30.01,31,11,31,0.00
2013-5-27,68.4,52.4,35.3,44.4,37.7,29.5,94,64,26,30.25,30.16,20,5,20,0.00
2013-5-28,65.8,54.2,37.0,55.0,45.6,35.2,94,75,49,30.20,30.03,15,6,15,0.06
2013-5-29,80.5,65.7,56.5,71.9,61.7,54.8,96,88,62,30.03,29.91,34,4,34,0.96
2013-5-30,85.9,71.1,56.6,71.2,63.8,55.5,97,80,53,30.12,30.03,16,3,16,0.00
2013-5-31,90.5,75.6,58.9,70.8,65.0,57.8,96,73,39,30.10,29.93,14,2,14,0.00
2013-6-1,89.5,76.3,61.2,69.7,65.2,59.8,96,71,45,29.96,29.79,21,4,21,0.01
2013-6-2,81.8,72.6,60.5,71.3,65.1,58.8,95,78,52,29.84,29.70,20,4,20,0.05
2013-6-3,63.4,56.5,44.6,59.6,46.5,39.5,94,71,46,29.99,29.83,20,9,20,0.00
2013-6-4,66.9,55.4,44.3,47.0,41.8,35.4,92,63,33,30.16,29.98,23,9,23,0.00
2013-6-5,73.3,59.2,41.3,52.2,45.2,36.2,95,64,27,30.21,30.10,12,2,12,0.00
2013-6-6,60.9,57.1,53.1,58.4,51.4,45.7,94,82,65,30.11,29.92,18,6,18,1.02
2013-6-7,58.6,56.6,55.0,55.9,54.6,53.3,95,93,87,29.92,29.80,21,11,21,0.23
2013-6-8,66.0,59.3,55.6,59.5,56.2,54.0,96,90,78,30.07,29.77,13,4,18,0.00
2013-6-9,75.6,65.1,52.9,59.7,55.9,51.5,96,75,48,30.18,30.07,15,4,15,0.00
2013-6-10,64.5,59.4,52.2,60.3,56.8,51.1,96,91,73,30.18,29.81,21,10,21,0.52
2013-6-11,65.8,61.2,56.9,64.3,59.6,54.9,96,94,92,29.81,29.61,21,9,21,0.72
2013-6-12,74.4,64.3,53.6,57.2,54.5,51.9,94,73,52,29.90,29.75,10,4,17,0.01
2013-6-13,58.7,56.9,52.4,56.7,54.7,51.0,96,93,86,29.83,29.62,12,4,22,1.38
2013-6-14,72.7,62.4,51.6,62.6,56.4,50.2,96,82,63,29.93,29.74,26,5,26,0.01
2013-6-15,74.2,61.2,48.8,59.1,50.3,36.4,97,72,27,30.03,29.93,20,5,20,0.00
2013-6-16,70.4,60.1,50.2,64.8,56.4,48.5,96,89,58,29.97,29.71,16,3,16,0.32
2013-6-17,78.8,65.2,52.9,67.2,59.8,51.8,97,84,60,29.93,29.82,18,4,18,0.35
2013-6-18,71.1,59.9,53.3,59.0,54.1,47.9,96,83,45,30.00,29.89,13,2,13,0.11
2013-6-19,69.6,58.3,43.3,51.5,46.6,42.0,96,69,39,30.20,30.00,18,4,18,0.00
2013-6-20,77.2,60.2,41.1,58.8,49.2,39.8,96,71,40,30.27,30.19,12,2,12,0.00
2013-6-21,83.0,65.8,46.1,61.4,51.9,44.3,96,67,29,30.28,30.18,12,1,12,0.00
2013-6-22,85.7,71.9,55.6,70.8,62.7,54.0,95,75,42,30.19,30.04,12,2,12,0.00
2013-6-23,90.7,76.6,67.1,73.8,68.3,64.6,94,77,53,30.09,30.00,22,3,22,0.01
2013-6-24,89.7,74.1,64.0,74.8,67.3,62.5,96,82,50,30.05,29.94,27,3,27,0.23
2013-6-25,84.7,73.0,60.5,73.9,69.3,59.4,96,89,64,29.97,29.80,17,1,18,0.65
2013-6-26,83.4,72.6,64.5,71.5,67.8,63.0,96,86,56,29.83,29.78,17,3,17,0.63
2013-6-27,84.3,71.4,59.9,72.8,65.8,58.8,97,84,54,29.83,29.61,13,2,13,0.43
2013-6-28,76.1,68.7,63.1,69.1,65.1,60.8,96,89,70,29.61,29.48,12,4,12,1.84
2013-6-29,75.8,67.6,62.0,69.1,64.0,60.4,96,89,69,29.70,29.50,16,2,16,0.22
2013-6-30,84.5,71.2,57.8,70.4,64.5,56.7,97,81,49,29.91,29.70,12,2,12,0.01
2013-7-1,72.8,69.7,66.3,70.4,67.8,64.8,96,94,87,30.00,29.90,15,3,15,1.34
2013-7-2,80.9,72.6,66.9,74.3,70.0,65.7,97,92,74,30.10,30.00,17,2,17,1.23
2013-7-3,88.8,75.6,67.8,77.7,70.7,66.7,97,86,59,30.17,30.09,12,1,12,0.00
2013-7-4,87.0,77.3,69.8,79.1,71.4,68.6,96,83,62,30.18,30.11,18,3,18,0.15
2013-7-5,88.2,75.2,68.8,76.1,71.3,67.0,97,89,58,30.15,30.06,58,2,58,1.84
2013-7-6,84.3,75.4,68.6,72.8,69.1,65.2,97,83,54,30.14,30.04,14,3,14,0.02
2013-7-7,87.2,76.9,68.1,76.0,70.9,66.9,96,83,59,30.06,29.92,20,3,20,0.81
2013-7-8,82.2,74.0,65.8,74.4,69.3,64.0,96,86,68,30.05,29.96,20,3,20,0.14
2013-7-9,87.2,74.0,64.0,74.4,67.7,62.8,97,82,50,30.07,29.94,12,2,12,0.00
2013-7-10,84.5,76.2,69.4,74.7,70.5,67.2,94,83,67,29.94,29.74,23,4,23,0.03
2013-7-11,78.6,71.7,62.0,68.3,63.9,60.1,94,77,59,30.02,29.78,20,6,20,0.01
2013-7-12,82.4,69.3,56.9,68.5,61.4,55.8,97,78,48,30.17,30.02,10,1,10,0.00
2013-7-13,77.9,70.3,62.0,69.7,64.7,60.6,96,83,67,30.27,30.17,15,4,15,0.00
2013-7-14,89.7,77.4,65.0,74.5,69.4,63.7,96,78,53,30.32,30.24,11,2,11,0.00
2013-7-15,89.0,77.8,66.9,73.8,68.7,63.2,97,76,49,30.28,30.21,15,4,15,0.00
2013-7-16,90.5,77.1,63.9,73.5,68.1,62.7,97,76,50,30.26,30.19,16,3,16,0.00
2013-7-17,92.7,79.0,63.5,76.9,70.6,62.3,97,77,52,30.23,30.05,13,2,13,0.00
2013-7-18,91.2,80.8,70.8,76.5,72.7,69.4,96,78,51,30.07,29.94,18,3,18,0.00
2013-7-19,92.7,81.2,68.8,77.5,71.1,65.2,96,74,49,29.94,29.72,26,5,26,0.00
2013-7-20,79.9,71.0,61.6,72.3,65.9,60.1,95,85,66,29.87,29.72,22,4,22,0.31
2013-7-21,80.5,69.3,57.5,67.3,61.0,56.4,97,77,47,30.00,29.87,14,2,14,0.00
2013-7-22,81.8,69.9,58.4,71.6,64.7,56.6,95,84,65,30.00,29.80,13,3,13,0.03
2013-7-23,82.8,72.3,66.8,70.8,67.5,65.6,96,86,58,29.80,29.60,16,2,16,0.57
2013-7-24,68.8,63.2,50.7,67.6,56.4,48.8,96,79,62,30.05,29.62,22,8,22,0.02
2013-7-25,76.5,60.2,44.6,60.0,51.3,43.5,97,76,43,30.12,30.05,9,2,9,0.00
2013-7-26,79.8,64.3,49.8,62.3,55.2,48.7,97,76,45,30.10,30.01,11,2,11,0.00
2013-7-27,81.6,68.4,53.1,67.2,59.9,52.0,96,77,48,30.03,29.89,16,5,16,0.91
2013-7-28,72.7,68.4,61.2,68.3,65.3,59.5,95,90,76,29.99,29.87,15,4,15,0.75
2013-7-29,76.3,64.7,54.2,63.1,57.5,53.1,97,79,53,30.12,29.99,18,3,18,0.01
2013-7-30,74.2,63.4,53.2,62.0,57.3,52.1,97,82,59,30.19,30.11,21,4,21,0.00
2013-7-31,79.6,66.0,51.7,65.4,58.1,50.6,97,78,47,30.16,29.98,7,1,7,0.00
2013-8-1,77.7,66.7,59.8,69.0,62.9,57.8,96,88,69,29.98,29.78,18,4,18,0.17
2013-8-2,78.6,66.7,57.8,66.9,60.3,56.6,97,82,52,29.90,29.83,13,2,13,0.00
2013-8-3,75.8,66.2,55.4,64.0,57.8,51.1,96,77,45,29.91,29.80,25,6,25,0.03
2013-8-4,72.7,63.3,53.9,62.6,56.1,52.2,96,79,51,30.01,29.88,22,7,22,0.04
2013-8-5,75.1,61.4,46.1,56.5,50.5,44.7,96,72,38,30.09,30.01,16,4,16,0.01
2013-8-6,78.8,62.8,45.8,60.2,53.4,44.7,97,74,41,30.09,30.05,12,3,12,0.00
2013-8-7,74.4,68.3,59.6,65.6,61.7,56.2,92,80,69,30.08,29.96,20,6,20,0.00
2013-8-8,83.8,72.7,62.6,73.2,67.2,61.1,96,84,62,30.00,29.91,14,2,14,0.01
2013-8-9,78.1,71.4,64.2,73.0,68.2,62.4,96,90,76,29.93,29.81,15,3,15,0.02
2013-8-10,73.2,65.1,51.9,62.5,55.7,49.6,95,74,45,30.09,29.90,22,7,22,0.00
2013-8-11,76.0,61.9,46.7,58.5,52.9,45.6,97,76,45,30.12,30.04,17,3,17,0.00
2013-8-12,79.2,66.2,51.9,64.5,58.3,50.8,97,78,48,30.05,29.89,15,2,15,0.00
2013-8-13,73.5,65.7,59.6,68.2,61.6,50.6,96,87,72,29.89,29.70,21,6,21,0.64
2013-8-14,67.6,59.3,51.4,57.4,52.7,48.6,90,79,64,30.04,29.79,26,8,26,0.02
2013-8-15,73.5,59.9,46.0,58.1,52.1,44.7,97,78,49,30.12,30.04,20,4,20,0.00
2013-8-16,76.5,61.8,48.0,60.7,53.3,46.9,97,77,41,30.22,30.12,17,2,17,0.00
2013-8-17,80.9,63.7,48.2,62.1,55.1,47.1,97,77,41,30.31,30.22,9,1,9,0.00
2013-8-18,79.9,65.4,54.8,66.7,59.2,53.6,97,82,51,30.27,30.11,7,1,7,0.00
2013-8-19,81.1,67.1,55.1,65.8,59.0,52.9,97,79,39,30.12,30.02,13,2,13,0.00
2013-8-20,82.2,66.9,51.6,67.1,59.5,50.5,97,80,49,30.13,30.05,15,2,15,0.00
2013-8-21,85.5,70.1,55.1,68.7,62.0,54.0,97,78,46,30.17,30.03,12,1,12,0.00
2013-8-22,85.5,70.9,57.6,70.8,64.9,56.5,97,83,52,30.03,29.87,20,3,20,0.56
2013-8-23,76.5,64.4,52.5,67.1,57.5,50.8,97,80,50,30.20,29.94,14,3,14,0.01
2013-8-24,76.5,59.4,44.8,59.4,50.1,39.5,97,75,44,30.36,30.20,12,1,12,0.00
2013-8-25,81.8,65.0,49.4,63.1,53.1,47.2,92,69,35,30.39,30.15,14,2,14,0.00
2013-8-26,77.0,68.8,63.1,69.4,64.1,58.1,96,85,73,30.18,29.93,17,2,17,0.59
2013-8-27,81.8,71.8,65.6,71.7,65.7,59.4,96,82,64,29.97,29.89,9,1,9,0.67
2013-8-28,88.2,74.0,64.0,85.9,70.9,62.1,97,91,58,29.92,29.83,8,1,8,0.00
2013-8-29,85.5,70.8,59.9,73.7,65.8,58.8,97,86,55,30.03,29.92,15,2,15,0.03
2013-8-30,85.9,72.6,64.3,73.3,67.6,63.1,97,86,55,30.00,29.79,17,1,17,0.11
2013-8-31,84.5,73.0,68.1,75.8,69.5,66.6,96,89,67,29.84,29.74,17,2,17,0.52
2013-9-1,83.2,74.5,67.4,70.8,68.5,66.1,96,83,61,29.86,29.77,12,2,12,0.00
2013-9-2,82.6,69.6,62.6,72.1,66.3,60.3,97,90,67,29.83,29.63,41,4,41,1.51
2013-9-3,71.1,63.8,58.1,64.6,59.2,55.8,97,86,60,29.89,29.75,20,4,20,0.04
2013-9-4,76.1,66.5,55.9,61.1,57.4,52.5,93,75,47,29.96,29.89,20,5,20,0.03
2013-9-5,68.3,62.1,53.9,62.0,52.0,39.8,95,73,37,30.09,29.91,23,7,23,0.01
2013-9-6,68.3,56.4,38.2,52.6,45.9,36.8,97,72,39,30.29,30.11,13,2,13,0.00
2013-9-7,69.8,58.2,47.6,61.5,54.0,46.5,97,87,61,30.11,29.88,7,1,7,0.09
2013-9-8,68.1,59.2,42.6,59.6,50.2,38.9,96,75,37,30.13,29.83,24,5,24,0.04
2013-9-9,72.7,56.4,39.3,59.1,47.7,38.2,97,76,41,30.21,30.02,17,3,17,0.00
2013-9-10,86.3,71.1,60.4,76.2,66.4,55.5,96,86,66,30.06,29.95,12,2,12,0.71
2013-9-11,93.4,76.2,65.5,78.3,70.0,64.4,97,83,47,30.06,29.91,27,3,27,0.43
2013-9-12,79.8,69.4,63.7,72.8,66.6,61.7,97,91,67,29.91,29.70,20,2,20,0.50
2013-9-13,63.5,57.4,49.2,61.7,53.9,45.5,95,88,78,29.97,29.68,17,6,17,0.01
2013-9-14,61.5,50.9,42.3,49.1,45.4,41.0,95,82,60,30.14,29.95,18,4,18,0.00
2013-9-15,70.4,52.7,37.8,56.2,47.4,36.5,97,84,50,30.18,30.06,7,1,7,0.00
2013-9-16,56.7,51.8,37.9,54.6,48.2,36.1,96,88,64,30.38,30.06,17,4,17,0.25
2013-9-17,65.0,46.8,31.5,48.9,39.9,30.2,97,80,43,30.50,30.34,10,1,10,0.00
2013-9-18,72.7,53.5,37.6,56.1,45.8,36.6,97,79,40,30.34,30.14,10,2,10,0.00
2013-9-19,76.8,57.5,41.3,60.1,49.9,40.2,97,79,43,30.17,30.04,6,1,6,0.00
2013-9-20,79.2,61.5,46.8,62.4,54.4,45.7,97,80,45,30.05,29.89,16,3,16,0.00
2013-9-21,71.5,63.2,54.8,61.8,57.5,52.7,97,83,60,29.90,29.61,28,7,28,0.68
2013-9-22,58.9,53.3,44.1,57.2,47.6,40.9,96,82,57,29.99,29.65,25,8,25,0.04
2013-9-23,58.9,47.7,38.3,44.3,40.6,36.8,96,78,53,30.12,29.98,20,6,20,0.00
2013-9-24,62.3,47.3,33.5,48.4,40.8,32.4,97,80,54,30.12,29.99,20,5,20,0.00
2013-9-25,69.4,51.1,35.5,53.5,44.6,34.2,97,81,48,30.02,29.93,13,2,13,0.00
2013-9-26,70.8,53.8,40.3,57.4,48.5,39.3,97,84,53,30.14,29.99,12,1,12,0.00
2013-9-27,66.9,53.6,39.9,54.2,47.4,38.6,97,81,58,30.29,30.14,12,2,12,0.00
2013-9-28,72.0,55.5,41.9,55.9,48.8,40.8,97,81,49,30.35,30.22,12,3,12,0.00
2013-9-29,72.0,55.8,41.8,55.2,48.4,40.7,97,79,46,30.23,30.06,18,2,18,0.00
2013-9-30,75.4,57.6,44.6,57.3,49.8,43.3,97,79,38,30.07,29.96,10,2,10,0.00
2013-10-1,73.7,57.6,46.1,62.4,52.6,45.0,97,85,56,30.03,29.93,15,2,15,0.00
2013-10-2,75.1,59.8,48.2,64.0,55.0,46.1,97,86,61,30.06,29.92,26,4,26,0.00
2013-10-3,71.6,54.9,41.1,56.4,48.8,39.8,97,83,46,30.16,30.05,9,0,9,0.00
2013-10-4,63.2,57.9,52.0,59.6,55.2,50.9,96,91,83,30.06,30.01,9,2,9,0.25
2013-10-5,62.4,60.1,57.9,59.9,56.8,54.1,94,89,79,30.10,30.05,14,2,14,0.01
2013-10-6,64.9,58.6,54.7,61.3,54.4,47.8,89,86,77,30.08,29.90,20,11,20,0.78
2013-10-7,74.5,61.2,48.7,65.7,56.2,44.7,89,84,72,29.96,29.65,29,8,29,1.25
2013-10-8,63.1,52.9,41.8,48.6,43.7,34.5,90,72,49,30.38,29.96,10,2,20,0.00
2013-10-9,65.2,50.3,37.2,46.6,39.4,29.3,90,68,43,30.46,30.32,9,2,14,0.00
2013-10-10,66.8,51.3,38.7,48.4,41.0,31.1,89,70,32,30.33,30.18,6,1,9,0.00
2013-10-11,69.7,54.2,44.2,54.6,46.6,36.1,89,77,48,30.18,30.10,3,0,5,0.00
2013-10-12,73.5,55.9,37.1,54.5,45.0,29.2,90,68,49,30.29,30.15,12,3,20,0.01
2013-10-13,69.3,59.6,48.5,55.3,51.0,46.0,93,74,58,30.36,30.27,11,2,16,0.00
2013-10-14,59.5,57.2,55.0,56.4,53.1,49.3,96,86,72,30.33,30.27,5,0,9,0.03
2013-10-15,68.4,57.9,47.7,56.0,52.9,46.6,97,84,60,30.30,30.04,5,0,10,0.00
2013-10-16,65.0,58.9,54.7,57.0,52.0,45.3,94,79,60,30.05,29.81,11,2,15,0.25
2013-10-17,66.6,57.4,46.0,56.1,50.4,44.6,96,79,51,29.89,29.67,8,1,14,0.88
2013-10-18,60.9,52.4,40.8,51.1,44.6,35.8,96,77,40,29.93,29.65,16,3,30,0.10
2013-10-19,63.5,50.7,39.2,48.6,43.4,37.9,96,79,43,29.93,29.67,12,1,21,0.15
2013-10-20,57.2,48.8,41.8,45.5,39.6,34.6,89,72,47,30.01,29.70,14,2,27,0.41
2013-10-21,65.5,54.1,41.2,45.1,40.5,36.8,93,64,35,30.05,29.82,16,2,25,0.00
2013-10-22,57.3,48.7,38.3,46.7,37.9,28.5,92,68,42,29.85,29.74,14,3,25,0.01
2013-10-23,51.1,41.1,33.1,39.1,34.6,28.5,92,79,52,29.83,29.66,8,1,12,0.02
2013-10-24,47.1,39.0,31.6,37.9,33.5,24.9,90,81,53,29.95,29.76,18,4,25,0.37
2013-10-25,47.4,40.4,36.3,38.3,35.4,31.9,90,83,65,30.17,29.95,12,3,17,0.11
2013-10-26,46.8,42.5,37.3,37.4,33.5,29.8,89,71,54,30.15,29.83,14,4,28,0.00
2013-10-27,46.5,43.0,40.8,39.3,37.0,34.1,85,79,66,30.07,29.80,14,4,21,0.00
2013-10-28,51.6,42.7,26.9,40.7,32.7,23.1,87,69,44,30.39,30.05,17,3,24,0.00
2013-10-29,45.9,32.1,20.4,28.3,22.1,16.4,90,69,33,30.49,30.33,5,1,7,0.00
2013-10-30,52.6,41.1,33.6,42.6,35.0,24.8,89,79,65,30.33,30.19,3,0,5,0.04
2013-10-31,60.9,50.5,40.8,57.3,46.5,37.2,89,86,67,30.19,29.54,14,3,20,0.72
2013-11-1,67.4,61.2,51.2,60.2,50.8,42.1,88,70,43,29.68,29.27,23,9,35,0.45
2013-11-2,55.2,46.6,38.3,46.6,41.4,34.8,89,82,67,29.91,29.64,11,2,17,0.04
2013-11-3,39.9,33.0,21.8,34.8,25.1,17.9,88,74,49,30.56,29.91,6,1,14,0.00
2013-11-4,40.8,30.0,17.7,24.2,18.2,15.3,92,64,37,30.69,30.56,8,1,13,0.00
2013-11-5,54.7,42.2,30.1,37.3,28.9,16.8,80,60,47,30.60,30.40,12,2,18,0.00
2013-11-6,62.3,52.6,40.9,49.0,43.0,35.8,86,71,54,30.40,29.84,19,6,33,0.01
2013-11-7,58.9,46.0,35.5,52.2,41.4,33.5,94,84,67,29.95,29.76,17,4,29,0.15
2013-11-8,38.8,35.4,30.3,34.5,30.6,26.1,95,83,67,30.20,29.92,14,2,24,0.39
2013-11-9,44.8,38.4,29.1,36.1,30.7,25.9,94,75,51,30.23,29.83,12,1,20,0.02
2013-11-10,45.7,41.5,37.8,42.4,36.4,28.5,92,82,67,30.07,29.77,20,4,35,0.47
2013-11-11,44.2,39.6,33.1,36.8,32.1,28.0,92,75,58,30.16,29.93,15,3,35,0.07
2013-11-12,32.9,28.1,24.7,30.8,21.6,17.5,92,77,65,30.34,30.02,16,4,28,0.01
2013-11-13,34.3,27.1,22.2,22.4,19.1,16.1,86,72,53,30.42,30.14,12,2,20,0.03
2013-11-14,48.6,33.7,21.0,27.7,22.2,17.5,88,66,33,30.14,30.06,11,1,21,0.01
2013-11-15,57.0,37.7,24.5,30.2,24.2,19.4,88,63,24,30.16,30.09,8,0,13,0.00
2013-11-16,61.1,47.0,30.7,38.7,33.1,26.4,87,60,36,30.28,30.16,7,1,13,0.00
2013-11-17,61.3,53.9,47.0,53.3,47.7,38.7,86,80,69,30.16,29.51,22,6,30,0.14
2013-11-18,62.0,50.5,38.2,55.4,38.8,25.9,87,65,41,29.81,29.40,21,6,31,0.12
2013-11-19,38.2,32.3,25.7,31.1,25.0,15.2,92,75,61,30.45,29.81,18,5,31,0.10
2013-11-20,36.9,26.7,15.9,20.2,16.4,13.0,91,66,44,30.64,30.45,8,1,15,0.00
2013-11-21,45.7,35.5,21.3,34.8,23.6,13.8,80,62,49,30.59,30.31,13,2,18,0.00
2013-11-22,45.5,41.1,37.5,43.3,38.9,34.0,94,92,81,30.31,29.94,19,1,32,0.15
2013-11-23,37.8,30.7,19.1,34.0,23.6,12.2,89,75,47,30.11,29.89,22,6,37,0.06
2013-11-24,25.3,18.4,12.6,15.7,8.8,4.7,87,66,46,30.37,30.03,22,6,35,0.03
2013-11-25,32.4,23.3,8.3,18.8,12.2,3.1,84,64,41,30.42,30.16,12,2,17,0.00
2013-11-26,34.7,31.5,28.5,31.3,26.3,12.8,95,82,46,30.23,29.86,12,3,23,0.43
2013-11-27,34.6,32.7,25.6,33.3,30.6,20.7,95,92,82,29.86,29.50,14,4,30,0.91
2013-11-28,27.2,22.3,17.8,20.9,16.1,11.2,87,77,54,30.46,29.76,17,4,30,0.04
2013-11-29,30.4,19.1,7.9,20.3,13.1,3.1,87,78,59,30.79,30.46,10,1,17,0.01
2013-11-30,29.6,16.3,0.9,23.5,8.7,-4.4,82,72,59,30.80,30.30,10,2,16,0.00
2013-12-1,37.2,33.5,27.0,30.2,27.8,21.6,88,79,72,30.30,30.00,6,2,12,0.03
2013-12-2,38.4,35.0,33.2,34.1,31.7,30.0,89,88,83,30.01,29.89,5,1,7,0.01
2013-12-3,40.7,33.3,26.0,34.7,28.6,21.3,89,83,70,30.05,29.90,5,0,9,0.00
2013-12-4,41.3,32.9,23.6,34.0,27.5,17.7,89,81,74,30.11,30.03,15,3,20,0.01
2013-12-5,57.1,47.2,36.3,52.7,42.5,29.8,88,84,76,30.07,29.83,13,4,20,0.01
2013-12-6,41.8,35.3,30.3,38.5,31.0,25.3,89,84,76,30.22,29.98,10,4,15,0.36
2013-12-7,31.6,29.3,25.5,27.6,24.1,18.8,89,81,69,30.53,30.19,17,6,25,0.00
2013-12-8,28.8,25.5,22.5,22.3,19.6,16.5,89,78,62,30.61,30.37,11,2,20,0.00
2013-12-9,41.5,32.0,25.2,35.8,27.9,22.0,89,85,69,30.37,29.87,17,6,26,0.10
2013-12-10,35.6,28.0,20.8,27.3,20.6,14.8,89,74,61,30.03,29.89,20,7,28,0.00
2013-12-11,27.2,23.9,18.8,19.0,14.4,9.8,89,67,51,30.23,30.03,20,10,28,0.00
2013-12-12,20.9,15.0,3.0,15.9,9.4,0.2,89,79,58,30.35,30.02,17,3,22,0.00
2013-12-13,23.2,18.0,7.4,20.2,12.0,-1.1,89,77,67,30.44,29.97,20,7,32,0.00
2013-12-14,13.6,9.0,4.3,10.3,3.8,-3.2,88,79,69,30.54,29.93,18,6,28,0.00
2013-12-15,24.8,22.0,13.4,21.8,18.4,10.2,89,86,70,29.93,29.63,20,7,33,0.00
2013-12-16,23.7,13.2,2.4,15.5,9.2,-0.5,89,84,60,30.24,29.76,19,3,31,0.00
2013-12-17,15.3,8.6,0.0,11.9,5.4,-3.2,89,87,85,30.23,29.90,12,3,20,0.00
2013-12-18,32.2,23.4,12.6,24.0,16.9,9.4,88,76,64,30.08,29.97,11,2,20,0.00
2013-12-19,41.9,34.3,26.3,29.6,24.5,17.2,79,67,55,30.08,29.95,14,2,20,0.00
2013-12-20,45.1,40.7,35.1,41.1,34.9,29.2,87,80,67,30.05,29.84,6,1,10,0.26
2013-12-21,54.6,49.3,38.4,50.1,42.4,27.9,88,77,62,29.85,29.79,9,2,14,0.59
2013-12-22,64.5,42.1,34.3,55.7,34.3,24.4,89,74,59,30.00,29.55,16,2,22,0.14
2013-12-23,40.6,36.3,26.9,33.6,29.0,21.8,89,75,63,30.24,29.99,10,2,14,0.10
2013-12-24,26.8,21.2,11.4,22.2,16.7,6.7,89,82,73,30.43,30.19,10,2,15,0.00
2013-12-25,19.0,12.1,0.3,11.8,6.3,-2.4,89,78,68,30.59,30.32,10,2,16,0.00
2013-12-26,32.2,25.1,19.0,26.5,20.6,12.1,88,83,74,30.32,30.10,13,3,20,0.00
2013-12-27,32.2,27.2,19.9,27.3,22.2,15.9,88,81,73,30.29,30.18,13,3,21,0.00
2013-12-28,40.7,32.5,24.3,34.0,26.8,17.8,88,80,68,30.18,30.00,5,1,12,0.08
2013-12-29,42.4,32.2,24.8,35.2,24.5,17.0,89,73,65,30.00,29.66,6,0,10,0.47
2013-12-30,37.0,19.5,6.3,33.8,14.7,3.7,89,82,66,30.25,29.68,20,5,30,0.04
2013-12-31,25.2,16.2,8.0,19.4,9.0,3.5,89,74,57,30.22,29.98,22,5,35,0.00
2014-1-1,19.7,16.0,10.9,14.6,10.7,6.6,88,79,65,30.41,30.21,15,2,24,0.00
2014-1-2,10.8,7.3,-3.1,7.8,4.1,-9.6,88,86,73,30.36,29.86,6,0,12,0.00